sensor_id;sensor_type;location;lat;lon;timestamp;temperature;humidity
19252;DHT22;9760;50.944;5.304;2023-05-07T00:02:24;15.20;99.90
19252;DHT22;9760;50.944;5.304;2023-05-07T00:04:50;15.20;99.90
19252;DHT22;9760;50.944;5.304;2023-05-07T00:07:17;15.20;99.90
19252;DHT22;9760;50.944;5.304;2023-05-07T00:09:43;15.30;99.90
19252;DHT22;9760;50.944;5.304;2023-05-07T00:12:09;15.40;99.90
19252;DHT22;9760;50.944;5.304;2023-05-07T00:14:35;15.30;99.90
19252;DHT22;9760;50.944;5.304;2023-05-07T00:17:01;15.30;99.90
19252;DHT22;9760;50.944;5.304;2023-05-07T00:19:26;15.40;99.90
19252;DHT22;9760;50.944;5.304;2023-05-07T00:21:52;15.30;99.90
19252;DHT22;9760;50.944;5.304;2023-05-07T00:24:19;15.40;99.90
19252;DHT22;9760;50.944;5.304;2023-05-07T00:26:45;15.40;99.90
19252;DHT22;9760;50.944;5.304;2023-05-07T00:29:11;15.40;99.90
19252;DHT22;9760;50.944;5.304;2023-05-07T00:31:36;15.50;99.90
19252;DHT22;9760;50.944;5.304;2023-05-07T00:34:02;15.60;99.90
19252;DHT22;9760;50.944;5.304;2023-05-07T00:36:28;15.60;99.90
19252;DHT22;9760;50.944;5.304;2023-05-07T00:38:56;15.60;99.90
19252;DHT22;9760;50.944;5.304;2023-05-07T00:41:22;15.60;99.90
19252;DHT22;9760;50.944;5.304;2023-05-07T00:43:48;15.60;99.90
19252;DHT22;9760;50.944;5.304;2023-05-07T00:46:14;15.60;99.90
19252;DHT22;9760;50.944;5.304;2023-05-07T00:48:41;15.70;99.90
19252;DHT22;9760;50.944;5.304;2023-05-07T00:51:06;15.70;99.90
19252;DHT22;9760;50.944;5.304;2023-05-07T00:53:32;15.70;99.90
19252;DHT22;9760;50.944;5.304;2023-05-07T00:55:58;15.70;99.90
19252;DHT22;9760;50.944;5.304;2023-05-07T00:58:24;15.60;99.90
19252;DHT22;9760;50.944;5.304;2023-05-07T01:00:50;15.50;99.90
19252;DHT22;9760;50.944;5.304;2023-05-07T01:03:16;15.60;99.90
19252;DHT22;9760;50.944;5.304;2023-05-07T01:05:41;15.60;99.90
19252;DHT22;9760;50.944;5.304;2023-05-07T01:08:08;15.60;99.90
19252;DHT22;9760;50.944;5.304;2023-05-07T01:10:36;15.60;99.90
19252;DHT22;9760;50.944;5.304;2023-05-07T01:13:02;15.60;99.90
19252;DHT22;9760;50.944;5.304;2023-05-07T01:15:28;15.60;99.90
19252;DHT22;9760;50.944;5.304;2023-05-07T01:17:53;15.50;99.90
19252;DHT22;9760;50.944;5.304;2023-05-07T01:20:21;15.40;99.90
19252;DHT22;9760;50.944;5.304;2023-05-07T01:22:48;15.50;99.90
19252;DHT22;9760;50.944;5.304;2023-05-07T01:25:14;15.40;99.90
19252;DHT22;9760;50.944;5.304;2023-05-07T01:27:41;15.40;99.90
19252;DHT22;9760;50.944;5.304;2023-05-07T01:30:07;15.40;99.90
19252;DHT22;9760;50.944;5.304;2023-05-07T01:32:43;15.40;99.90
19252;DHT22;9760;50.944;5.304;2023-05-07T01:35:12;15.40;99.90
19252;DHT22;9760;50.944;5.304;2023-05-07T01:37:39;15.40;99.90
19252;DHT22;9760;50.944;5.304;2023-05-07T01:40:06;15.40;99.90
19252;DHT22;9760;50.944;5.304;2023-05-07T01:42:35;15.30;99.90
19252;DHT22;9760;50.944;5.304;2023-05-07T01:45:02;15.30;99.90
19252;DHT22;9760;50.944;5.304;2023-05-07T01:47:29;15.30;99.90
19252;DHT22;9760;50.944;5.304;2023-05-07T01:49:55;15.20;99.90
19252;DHT22;9760;50.944;5.304;2023-05-07T01:52:22;15.20;99.90
19252;DHT22;9760;50.944;5.304;2023-05-07T01:54:47;15.20;99.90
19252;DHT22;9760;50.944;5.304;2023-05-07T01:57:13;15.20;99.90
19252;DHT22;9760;50.944;5.304;2023-05-07T01:59:39;15.20;99.90
19252;DHT22;9760;50.944;5.304;2023-05-07T02:02:04;15.20;99.90
19252;DHT22;9760;50.944;5.304;2023-05-07T02:04:30;15.20;99.90
19252;DHT22;9760;50.944;5.304;2023-05-07T02:06:56;15.20;99.90
19252;DHT22;9760;50.944;5.304;2023-05-07T02:09:21;15.20;99.90
19252;DHT22;9760;50.944;5.304;2023-05-07T02:11:48;15.30;99.90
19252;DHT22;9760;50.944;5.304;2023-05-07T02:14:13;15.20;99.90
19252;DHT22;9760;50.944;5.304;2023-05-07T02:16:39;15.10;99.90
19252;DHT22;9760;50.944;5.304;2023-05-07T02:19:05;15.00;99.90
19252;DHT22;9760;50.944;5.304;2023-05-07T02:21:30;14.90;99.90
19252;DHT22;9760;50.944;5.304;2023-05-07T02:23:56;15.00;99.90
19252;DHT22;9760;50.944;5.304;2023-05-07T02:26:22;15.00;99.90
19252;DHT22;9760;50.944;5.304;2023-05-07T02:28:47;15.00;99.90
19252;DHT22;9760;50.944;5.304;2023-05-07T02:31:13;15.00;99.90
19252;DHT22;9760;50.944;5.304;2023-05-07T02:33:39;15.10;99.90
19252;DHT22;9760;50.944;5.304;2023-05-07T02:36:06;15.10;99.90
19252;DHT22;9760;50.944;5.304;2023-05-07T02:38:33;15.00;99.90
19252;DHT22;9760;50.944;5.304;2023-05-07T02:40:59;15.00;99.90
19252;DHT22;9760;50.944;5.304;2023-05-07T02:43:25;15.00;99.90
19252;DHT22;9760;50.944;5.304;2023-05-07T02:46:00;15.10;99.90
19252;DHT22;9760;50.944;5.304;2023-05-07T02:48:27;15.20;99.90
19252;DHT22;9760;50.944;5.304;2023-05-07T02:50:52;15.30;99.90
19252;DHT22;9760;50.944;5.304;2023-05-07T02:53:18;15.40;99.90
19252;DHT22;9760;50.944;5.304;2023-05-07T02:55:43;15.40;99.90
19252;DHT22;9760;50.944;5.304;2023-05-07T02:58:09;15.30;99.90
19252;DHT22;9760;50.944;5.304;2023-05-07T03:00:35;15.30;99.90
19252;DHT22;9760;50.944;5.304;2023-05-07T03:03:01;15.20;99.90
19252;DHT22;9760;50.944;5.304;2023-05-07T03:05:26;15.10;99.90
19252;DHT22;9760;50.944;5.304;2023-05-07T03:07:52;15.00;99.90
19252;DHT22;9760;50.944;5.304;2023-05-07T03:10:17;15.00;99.90
19252;DHT22;9760;50.944;5.304;2023-05-07T03:12:43;15.10;99.90
19252;DHT22;9760;50.944;5.304;2023-05-07T03:15:09;15.20;99.90
19252;DHT22;9760;50.944;5.304;2023-05-07T03:17:36;15.10;99.90
19252;DHT22;9760;50.944;5.304;2023-05-07T03:20:02;15.00;99.90
19252;DHT22;9760;50.944;5.304;2023-05-07T03:22:28;15.00;99.90
19252;DHT22;9760;50.944;5.304;2023-05-07T03:24:53;15.10;99.90
19252;DHT22;9760;50.944;5.304;2023-05-07T03:27:19;15.10;99.90
19252;DHT22;9760;50.944;5.304;2023-05-07T03:29:45;15.00;99.90
19252;DHT22;9760;50.944;5.304;2023-05-07T03:32:11;15.10;99.90
19252;DHT22;9760;50.944;5.304;2023-05-07T03:34:37;15.10;99.90
19252;DHT22;9760;50.944;5.304;2023-05-07T03:37:02;15.20;99.90
19252;DHT22;9760;50.944;5.304;2023-05-07T03:39:28;15.20;99.90
19252;DHT22;9760;50.944;5.304;2023-05-07T03:41:53;15.20;99.90
19252;DHT22;9760;50.944;5.304;2023-05-07T03:44:19;15.10;99.90
19252;DHT22;9760;50.944;5.304;2023-05-07T03:46:45;15.10;99.90
19252;DHT22;9760;50.944;5.304;2023-05-07T03:49:11;15.10;99.90
19252;DHT22;9760;50.944;5.304;2023-05-07T03:51:36;15.10;99.90
19252;DHT22;9760;50.944;5.304;2023-05-07T03:54:02;15.10;99.90
19252;DHT22;9760;50.944;5.304;2023-05-07T03:56:28;15.00;99.90
19252;DHT22;9760;50.944;5.304;2023-05-07T03:58:53;15.00;99.90
19252;DHT22;9760;50.944;5.304;2023-05-07T04:01:19;14.90;99.90
19252;DHT22;9760;50.944;5.304;2023-05-07T04:03:45;14.90;99.90
19252;DHT22;9760;50.944;5.304;2023-05-07T04:06:10;15.00;99.90
19252;DHT22;9760;50.944;5.304;2023-05-07T04:08:37;15.00;99.90
19252;DHT22;9760;50.944;5.304;2023-05-07T04:11:03;15.00;99.90
19252;DHT22;9760;50.944;5.304;2023-05-07T04:13:29;15.10;99.90
19252;DHT22;9760;50.944;5.304;2023-05-07T04:15:55;15.10;99.90
19252;DHT22;9760;50.944;5.304;2023-05-07T04:18:21;15.10;99.90
19252;DHT22;9760;50.944;5.304;2023-05-07T04:20:50;15.20;99.90
19252;DHT22;9760;50.944;5.304;2023-05-07T04:23:16;15.10;99.90
19252;DHT22;9760;50.944;5.304;2023-05-07T04:25:41;15.10;99.90
19252;DHT22;9760;50.944;5.304;2023-05-07T04:28:07;15.10;99.90
19252;DHT22;9760;50.944;5.304;2023-05-07T04:30:33;15.10;99.90
19252;DHT22;9760;50.944;5.304;2023-05-07T04:32:58;15.10;99.90
19252;DHT22;9760;50.944;5.304;2023-05-07T04:35:24;15.10;99.90
19252;DHT22;9760;50.944;5.304;2023-05-07T04:37:49;15.00;99.90
19252;DHT22;9760;50.944;5.304;2023-05-07T04:40:15;15.00;99.90
19252;DHT22;9760;50.944;5.304;2023-05-07T04:42:41;15.10;99.90
19252;DHT22;9760;50.944;5.304;2023-05-07T04:45:07;15.10;99.90
19252;DHT22;9760;50.944;5.304;2023-05-07T04:47:34;15.20;99.90
19252;DHT22;9760;50.944;5.304;2023-05-07T04:49:59;15.30;99.90
19252;DHT22;9760;50.944;5.304;2023-05-07T04:52:25;15.30;99.90
19252;DHT22;9760;50.944;5.304;2023-05-07T04:54:51;15.30;99.90
19252;DHT22;9760;50.944;5.304;2023-05-07T04:57:16;15.30;99.90
19252;DHT22;9760;50.944;5.304;2023-05-07T04:59:46;15.30;99.90
19252;DHT22;9760;50.944;5.304;2023-05-07T05:02:11;15.30;99.90
19252;DHT22;9760;50.944;5.304;2023-05-07T05:04:37;15.30;99.90
19252;DHT22;9760;50.944;5.304;2023-05-07T05:07:03;15.40;99.90
19252;DHT22;9760;50.944;5.304;2023-05-07T05:09:31;15.50;99.90
19252;DHT22;9760;50.944;5.304;2023-05-07T05:11:57;15.50;99.90
19252;DHT22;9760;50.944;5.304;2023-05-07T05:14:23;15.60;99.90
19252;DHT22;9760;50.944;5.304;2023-05-07T05:16:48;15.60;99.90
19252;DHT22;9760;50.944;5.304;2023-05-07T05:19:14;15.70;99.90
19252;DHT22;9760;50.944;5.304;2023-05-07T05:21:40;15.70;99.90
19252;DHT22;9760;50.944;5.304;2023-05-07T05:24:06;15.80;99.90
19252;DHT22;9760;50.944;5.304;2023-05-07T05:26:32;15.60;99.90
19252;DHT22;9760;50.944;5.304;2023-05-07T05:28:57;15.60;99.90
19252;DHT22;9760;50.944;5.304;2023-05-07T05:31:23;15.70;99.90
19252;DHT22;9760;50.944;5.304;2023-05-07T05:33:48;15.80;99.90
19252;DHT22;9760;50.944;5.304;2023-05-07T05:36:14;16.00;99.90
19252;DHT22;9760;50.944;5.304;2023-05-07T05:38:40;16.10;99.90
19252;DHT22;9760;50.944;5.304;2023-05-07T05:41:05;16.10;99.90
19252;DHT22;9760;50.944;5.304;2023-05-07T05:43:31;16.20;99.90
19252;DHT22;9760;50.944;5.304;2023-05-07T05:45:57;16.20;99.90
19252;DHT22;9760;50.944;5.304;2023-05-07T05:48:23;16.20;99.90
19252;DHT22;9760;50.944;5.304;2023-05-07T05:50:49;16.20;99.90
19252;DHT22;9760;50.944;5.304;2023-05-07T05:53:14;16.30;99.90
19252;DHT22;9760;50.944;5.304;2023-05-07T05:55:41;16.30;99.90
19252;DHT22;9760;50.944;5.304;2023-05-07T05:58:07;16.40;99.90
19252;DHT22;9760;50.944;5.304;2023-05-07T06:00:33;16.50;99.90
19252;DHT22;9760;50.944;5.304;2023-05-07T06:02:59;16.50;99.90
19252;DHT22;9760;50.944;5.304;2023-05-07T06:05:24;16.60;99.90
19252;DHT22;9760;50.944;5.304;2023-05-07T06:07:50;16.70;99.90
19252;DHT22;9760;50.944;5.304;2023-05-07T06:10:16;16.60;99.90
19252;DHT22;9760;50.944;5.304;2023-05-07T06:12:41;16.50;99.90
19252;DHT22;9760;50.944;5.304;2023-05-07T06:15:07;16.70;99.90
19252;DHT22;9760;50.944;5.304;2023-05-07T06:17:33;16.80;99.90
19252;DHT22;9760;50.944;5.304;2023-05-07T06:19:59;17.00;99.90
19252;DHT22;9760;50.944;5.304;2023-05-07T06:22:25;17.10;99.90
19252;DHT22;9760;50.944;5.304;2023-05-07T06:24:50;17.10;99.90
19252;DHT22;9760;50.944;5.304;2023-05-07T06:27:16;17.30;99.90
19252;DHT22;9760;50.944;5.304;2023-05-07T06:29:42;17.30;99.90
19252;DHT22;9760;50.944;5.304;2023-05-07T06:32:08;17.40;99.90
19252;DHT22;9760;50.944;5.304;2023-05-07T06:34:35;17.50;99.90
19252;DHT22;9760;50.944;5.304;2023-05-07T06:37:00;17.50;99.90
19252;DHT22;9760;50.944;5.304;2023-05-07T06:39:26;17.60;99.90
19252;DHT22;9760;50.944;5.304;2023-05-07T06:41:52;17.60;99.90
19252;DHT22;9760;50.944;5.304;2023-05-07T06:44:18;17.70;99.90
19252;DHT22;9760;50.944;5.304;2023-05-07T06:46:43;17.80;99.90
19252;DHT22;9760;50.944;5.304;2023-05-07T06:49:12;17.60;99.90
19252;DHT22;9760;50.944;5.304;2023-05-07T06:51:37;17.70;99.90
19252;DHT22;9760;50.944;5.304;2023-05-07T06:54:03;17.70;99.90
19252;DHT22;9760;50.944;5.304;2023-05-07T06:56:30;17.80;99.90
19252;DHT22;9760;50.944;5.304;2023-05-07T06:58:56;17.80;99.90
19252;DHT22;9760;50.944;5.304;2023-05-07T07:01:22;17.90;99.90
19252;DHT22;9760;50.944;5.304;2023-05-07T07:03:47;17.90;99.90
19252;DHT22;9760;50.944;5.304;2023-05-07T07:06:13;18.00;99.90
19252;DHT22;9760;50.944;5.304;2023-05-07T07:08:39;18.10;99.90
19252;DHT22;9760;50.944;5.304;2023-05-07T07:11:05;18.20;99.90
19252;DHT22;9760;50.944;5.304;2023-05-07T07:13:31;18.40;99.90
19252;DHT22;9760;50.944;5.304;2023-05-07T07:15:56;18.20;99.90
19252;DHT22;9760;50.944;5.304;2023-05-07T07:18:22;18.20;99.90
19252;DHT22;9760;50.944;5.304;2023-05-07T07:20:48;18.40;99.90
19252;DHT22;9760;50.944;5.304;2023-05-07T07:23:14;18.50;99.90
19252;DHT22;9760;50.944;5.304;2023-05-07T07:25:39;18.60;99.90
19252;DHT22;9760;50.944;5.304;2023-05-07T07:28:06;18.50;99.90
19252;DHT22;9760;50.944;5.304;2023-05-07T07:30:32;18.40;99.90
19252;DHT22;9760;50.944;5.304;2023-05-07T07:32:57;18.30;99.90
19252;DHT22;9760;50.944;5.304;2023-05-07T07:35:31;18.60;99.90
19252;DHT22;9760;50.944;5.304;2023-05-07T07:37:57;18.80;99.90
19252;DHT22;9760;50.944;5.304;2023-05-07T07:40:23;18.90;99.90
19252;DHT22;9760;50.944;5.304;2023-05-07T07:42:50;18.80;99.90
19252;DHT22;9760;50.944;5.304;2023-05-07T07:45:16;18.70;99.90
19252;DHT22;9760;50.944;5.304;2023-05-07T07:47:42;18.70;99.90
19252;DHT22;9760;50.944;5.304;2023-05-07T07:50:08;18.80;99.90
19252;DHT22;9760;50.944;5.304;2023-05-07T07:52:34;18.80;99.90
19252;DHT22;9760;50.944;5.304;2023-05-07T07:55:00;18.80;99.90
19252;DHT22;9760;50.944;5.304;2023-05-07T07:57:26;19.00;99.90
19252;DHT22;9760;50.944;5.304;2023-05-07T07:59:52;19.20;99.90
19252;DHT22;9760;50.944;5.304;2023-05-07T08:02:18;18.90;99.90
19252;DHT22;9760;50.944;5.304;2023-05-07T08:04:44;19.10;99.90
19252;DHT22;9760;50.944;5.304;2023-05-07T08:07:10;19.20;99.90
19252;DHT22;9760;50.944;5.304;2023-05-07T08:09:37;19.20;99.90
19252;DHT22;9760;50.944;5.304;2023-05-07T08:12:04;19.30;99.90
19252;DHT22;9760;50.944;5.304;2023-05-07T08:14:29;19.30;99.90
19252;DHT22;9760;50.944;5.304;2023-05-07T08:16:55;19.50;99.90
19252;DHT22;9760;50.944;5.304;2023-05-07T08:19:21;19.60;99.90
19252;DHT22;9760;50.944;5.304;2023-05-07T08:21:48;19.90;99.90
19252;DHT22;9760;50.944;5.304;2023-05-07T08:24:14;19.70;99.90
19252;DHT22;9760;50.944;5.304;2023-05-07T08:26:40;19.70;99.90
19252;DHT22;9760;50.944;5.304;2023-05-07T08:29:06;19.70;99.90
19252;DHT22;9760;50.944;5.304;2023-05-07T08:31:32;19.60;99.90
19252;DHT22;9760;50.944;5.304;2023-05-07T08:33:58;19.60;99.90
19252;DHT22;9760;50.944;5.304;2023-05-07T08:36:24;19.70;99.90
19252;DHT22;9760;50.944;5.304;2023-05-07T08:38:51;19.80;99.90
19252;DHT22;9760;50.944;5.304;2023-05-07T08:41:17;19.90;99.90
19252;DHT22;9760;50.944;5.304;2023-05-07T08:43:47;19.80;99.90
19252;DHT22;9760;50.944;5.304;2023-05-07T08:46:19;19.70;99.90
19252;DHT22;9760;50.944;5.304;2023-05-07T08:48:48;19.80;99.90
19252;DHT22;9760;50.944;5.304;2023-05-07T08:51:17;19.90;99.90
19252;DHT22;9760;50.944;5.304;2023-05-07T08:53:43;20.00;99.90
19252;DHT22;9760;50.944;5.304;2023-05-07T08:56:09;20.10;99.90
19252;DHT22;9760;50.944;5.304;2023-05-07T08:58:35;20.30;99.90
19252;DHT22;9760;50.944;5.304;2023-05-07T09:01:09;20.40;99.90
19252;DHT22;9760;50.944;5.304;2023-05-07T09:03:37;20.40;99.90
19252;DHT22;9760;50.944;5.304;2023-05-07T09:06:04;20.50;99.90
19252;DHT22;9760;50.944;5.304;2023-05-07T09:08:32;20.60;99.90
19252;DHT22;9760;50.944;5.304;2023-05-07T09:10:57;20.80;99.90
19252;DHT22;9760;50.944;5.304;2023-05-07T09:13:23;21.00;99.90
19252;DHT22;9760;50.944;5.304;2023-05-07T09:15:49;20.80;99.90
19252;DHT22;9760;50.944;5.304;2023-05-07T09:18:15;20.90;99.90
19252;DHT22;9760;50.944;5.304;2023-05-07T09:20:41;20.90;99.90
19252;DHT22;9760;50.944;5.304;2023-05-07T09:23:07;20.90;99.90
19252;DHT22;9760;50.944;5.304;2023-05-07T09:25:34;21.00;99.90
19252;DHT22;9760;50.944;5.304;2023-05-07T09:28:01;21.10;99.90
19252;DHT22;9760;50.944;5.304;2023-05-07T09:30:31;21.10;99.90
19252;DHT22;9760;50.944;5.304;2023-05-07T09:33:01;21.30;99.90
19252;DHT22;9760;50.944;5.304;2023-05-07T09:35:27;21.10;99.90
19252;DHT22;9760;50.944;5.304;2023-05-07T09:37:58;21.40;99.90
19252;DHT22;9760;50.944;5.304;2023-05-07T09:40:29;21.20;99.90
19252;DHT22;9760;50.944;5.304;2023-05-07T09:42:55;21.30;99.90
19252;DHT22;9760;50.944;5.304;2023-05-07T09:45:27;21.40;99.90
19252;DHT22;9760;50.944;5.304;2023-05-07T09:47:56;21.50;99.90
19252;DHT22;9760;50.944;5.304;2023-05-07T09:50:28;21.20;99.90
19252;DHT22;9760;50.944;5.304;2023-05-07T09:52:55;21.10;99.90
19252;DHT22;9760;50.944;5.304;2023-05-07T09:55:24;21.10;99.90
19252;DHT22;9760;50.944;5.304;2023-05-07T09:57:51;21.20;99.90
19252;DHT22;9760;50.944;5.304;2023-05-07T10:00:21;21.10;99.90
19252;DHT22;9760;50.944;5.304;2023-05-07T10:02:49;20.90;99.90
19252;DHT22;9760;50.944;5.304;2023-05-07T10:05:15;21.00;99.90
19252;DHT22;9760;50.944;5.304;2023-05-07T10:07:41;20.80;99.90
19252;DHT22;9760;50.944;5.304;2023-05-07T10:10:08;20.80;99.90
19252;DHT22;9760;50.944;5.304;2023-05-07T10:12:34;20.80;99.90
19252;DHT22;9760;50.944;5.304;2023-05-07T10:15:13;20.60;99.90
19252;DHT22;9760;50.944;5.304;2023-05-07T10:17:40;20.60;99.90
19252;DHT22;9760;50.944;5.304;2023-05-07T10:20:07;20.40;99.90
19252;DHT22;9760;50.944;5.304;2023-05-07T10:22:39;20.20;99.90
19252;DHT22;9760;50.944;5.304;2023-05-07T10:25:18;20.10;99.90
19252;DHT22;9760;50.944;5.304;2023-05-07T10:27:47;20.10;99.90
19252;DHT22;9760;50.944;5.304;2023-05-07T10:33:23;20.10;99.90
19252;DHT22;9760;50.944;5.304;2023-05-07T10:35:51;20.00;99.90
19252;DHT22;9760;50.944;5.304;2023-05-07T10:38:21;20.00;99.90
19252;DHT22;9760;50.944;5.304;2023-05-07T10:40:46;19.90;99.90
19252;DHT22;9760;50.944;5.304;2023-05-07T10:43:12;19.80;99.90
19252;DHT22;9760;50.944;5.304;2023-05-07T10:45:38;19.80;99.90
19252;DHT22;9760;50.944;5.304;2023-05-07T10:50:34;19.90;99.90
19252;DHT22;9760;50.944;5.304;2023-05-07T10:55:46;19.90;99.90
19252;DHT22;9760;50.944;5.304;2023-05-07T10:58:30;20.00;99.90
19252;DHT22;9760;50.944;5.304;2023-05-07T11:00:57;19.90;99.90
19252;DHT22;9760;50.944;5.304;2023-05-07T11:03:23;19.90;99.90
19252;DHT22;9760;50.944;5.304;2023-05-07T11:11:18;19.50;99.90
19252;DHT22;9760;50.944;5.304;2023-05-07T11:13:48;19.40;99.90
19252;DHT22;9760;50.944;5.304;2023-05-07T11:16:24;19.30;99.90
19252;DHT22;9760;50.944;5.304;2023-05-07T11:18:52;19.20;99.90
19252;DHT22;9760;50.944;5.304;2023-05-07T11:21:38;18.90;99.90
19252;DHT22;9760;50.944;5.304;2023-05-07T11:24:05;18.70;99.90
19252;DHT22;9760;50.944;5.304;2023-05-07T11:29:18;18.60;99.90
19252;DHT22;9760;50.944;5.304;2023-05-07T11:31:44;18.60;99.90
19252;DHT22;9760;50.944;5.304;2023-05-07T11:34:14;18.60;99.90
19252;DHT22;9760;50.944;5.304;2023-05-07T11:36:43;18.40;99.90
19252;DHT22;9760;50.944;5.304;2023-05-07T11:39:29;18.40;99.90
19252;DHT22;9760;50.944;5.304;2023-05-07T11:41:56;18.30;99.90
19252;DHT22;9760;50.944;5.304;2023-05-07T11:44:22;18.10;99.90
19252;DHT22;9760;50.944;5.304;2023-05-07T11:46:48;18.00;99.90
19252;DHT22;9760;50.944;5.304;2023-05-07T11:49:14;17.80;99.90
19252;DHT22;9760;50.944;5.304;2023-05-07T11:51:41;17.80;99.90
19252;DHT22;9760;50.944;5.304;2023-05-07T11:54:08;17.60;99.90
19252;DHT22;9760;50.944;5.304;2023-05-07T11:56:37;17.50;99.90
19252;DHT22;9760;50.944;5.304;2023-05-07T11:59:02;17.50;99.90
19252;DHT22;9760;50.944;5.304;2023-05-07T12:01:28;17.60;99.90
19252;DHT22;9760;50.944;5.304;2023-05-07T12:03:54;17.70;99.90
19252;DHT22;9760;50.944;5.304;2023-05-07T12:06:20;17.70;99.90
19252;DHT22;9760;50.944;5.304;2023-05-07T12:08:46;17.80;99.90
19252;DHT22;9760;50.944;5.304;2023-05-07T12:11:23;17.70;99.90
19252;DHT22;9760;50.944;5.304;2023-05-07T12:13:49;17.70;99.90
19252;DHT22;9760;50.944;5.304;2023-05-07T12:16:14;17.80;99.90
19252;DHT22;9760;50.944;5.304;2023-05-07T12:18:40;17.80;99.90
19252;DHT22;9760;50.944;5.304;2023-05-07T12:21:06;17.80;99.90
19252;DHT22;9760;50.944;5.304;2023-05-07T12:23:36;17.70;99.90
19252;DHT22;9760;50.944;5.304;2023-05-07T12:26:02;17.60;99.90
19252;DHT22;9760;50.944;5.304;2023-05-07T12:28:28;17.70;99.90
19252;DHT22;9760;50.944;5.304;2023-05-07T12:30:54;17.80;99.90
19252;DHT22;9760;50.944;5.304;2023-05-07T12:33:25;17.90;99.90
19252;DHT22;9760;50.944;5.304;2023-05-07T12:35:52;17.90;99.90
19252;DHT22;9760;50.944;5.304;2023-05-07T12:38:18;17.90;99.90
19252;DHT22;9760;50.944;5.304;2023-05-07T12:40:49;18.00;99.90
19252;DHT22;9760;50.944;5.304;2023-05-07T12:43:24;18.10;99.90
19252;DHT22;9760;50.944;5.304;2023-05-07T12:45:52;18.10;99.90
19252;DHT22;9760;50.944;5.304;2023-05-07T12:48:19;18.20;99.90
19252;DHT22;9760;50.944;5.304;2023-05-07T12:50:52;18.20;99.90
19252;DHT22;9760;50.944;5.304;2023-05-07T12:53:21;18.10;99.90
19252;DHT22;9760;50.944;5.304;2023-05-07T12:55:49;18.20;99.90
19252;DHT22;9760;50.944;5.304;2023-05-07T12:58:29;18.20;99.90
19252;DHT22;9760;50.944;5.304;2023-05-07T13:00:56;18.40;99.90
19252;DHT22;9760;50.944;5.304;2023-05-07T13:03:31;18.40;99.90
19252;DHT22;9760;50.944;5.304;2023-05-07T13:05:59;18.30;99.90
19252;DHT22;9760;50.944;5.304;2023-05-07T13:08:34;18.30;99.90
19252;DHT22;9760;50.944;5.304;2023-05-07T13:11:01;18.30;99.90
19252;DHT22;9760;50.944;5.304;2023-05-07T13:13:35;18.40;99.90
19252;DHT22;9760;50.944;5.304;2023-05-07T13:16:04;18.40;99.90
19252;DHT22;9760;50.944;5.304;2023-05-07T13:18:31;18.40;99.90
19252;DHT22;9760;50.944;5.304;2023-05-07T13:20:58;18.40;99.90
19252;DHT22;9760;50.944;5.304;2023-05-07T13:23:24;18.40;99.90
19252;DHT22;9760;50.944;5.304;2023-05-07T13:25:50;18.60;99.90
19252;DHT22;9760;50.944;5.304;2023-05-07T13:28:16;18.50;99.90
19252;DHT22;9760;50.944;5.304;2023-05-07T13:30:41;18.60;99.90
19252;DHT22;9760;50.944;5.304;2023-05-07T13:33:07;18.70;99.90
19252;DHT22;9760;50.944;5.304;2023-05-07T13:35:33;18.80;99.90
19252;DHT22;9760;50.944;5.304;2023-05-07T13:37:59;18.80;99.90
19252;DHT22;9760;50.944;5.304;2023-05-07T13:40:25;18.90;99.90
19252;DHT22;9760;50.944;5.304;2023-05-07T13:42:50;18.90;99.90
19252;DHT22;9760;50.944;5.304;2023-05-07T13:45:20;18.90;99.90
19252;DHT22;9760;50.944;5.304;2023-05-07T13:47:46;19.00;99.90
19252;DHT22;9760;50.944;5.304;2023-05-07T13:50:12;19.10;99.90
19252;DHT22;9760;50.944;5.304;2023-05-07T13:52:41;19.00;99.90
19252;DHT22;9760;50.944;5.304;2023-05-07T13:55:08;19.20;99.90
19252;DHT22;9760;50.944;5.304;2023-05-07T13:57:35;19.30;99.90
19252;DHT22;9760;50.944;5.304;2023-05-07T14:00:00;19.30;99.90
19252;DHT22;9760;50.944;5.304;2023-05-07T14:02:26;19.40;99.90
19252;DHT22;9760;50.944;5.304;2023-05-07T14:04:52;19.40;99.90
19252;DHT22;9760;50.944;5.304;2023-05-07T14:07:17;19.30;99.90
19252;DHT22;9760;50.944;5.304;2023-05-07T14:09:43;19.20;99.90
19252;DHT22;9760;50.944;5.304;2023-05-07T14:12:10;19.30;99.90
19252;DHT22;9760;50.944;5.304;2023-05-07T14:14:36;19.30;99.90
19252;DHT22;9760;50.944;5.304;2023-05-07T14:17:02;19.40;99.90
19252;DHT22;9760;50.944;5.304;2023-05-07T14:19:27;19.40;99.90
19252;DHT22;9760;50.944;5.304;2023-05-07T14:21:53;19.60;99.90
19252;DHT22;9760;50.944;5.304;2023-05-07T14:24:18;19.50;99.90
19252;DHT22;9760;50.944;5.304;2023-05-07T14:26:44;19.50;99.90
19252;DHT22;9760;50.944;5.304;2023-05-07T14:29:10;19.50;99.90
19252;DHT22;9760;50.944;5.304;2023-05-07T14:31:36;19.50;99.90
19252;DHT22;9760;50.944;5.304;2023-05-07T14:34:01;19.60;99.90
19252;DHT22;9760;50.944;5.304;2023-05-07T14:36:27;19.60;99.90
19252;DHT22;9760;50.944;5.304;2023-05-07T14:38:55;19.60;99.90
19252;DHT22;9760;50.944;5.304;2023-05-07T14:41:22;19.70;99.90
19252;DHT22;9760;50.944;5.304;2023-05-07T14:43:48;19.70;99.90
19252;DHT22;9760;50.944;5.304;2023-05-07T14:46:18;19.70;99.90
19252;DHT22;9760;50.944;5.304;2023-05-07T14:48:45;19.80;99.90
19252;DHT22;9760;50.944;5.304;2023-05-07T14:51:11;19.70;99.90
19252;DHT22;9760;50.944;5.304;2023-05-07T14:53:38;19.70;99.90
19252;DHT22;9760;50.944;5.304;2023-05-07T14:56:04;19.70;99.90
19252;DHT22;9760;50.944;5.304;2023-05-07T14:58:30;19.60;99.90
19252;DHT22;9760;50.944;5.304;2023-05-07T15:00:56;19.60;99.90
19252;DHT22;9760;50.944;5.304;2023-05-07T15:03:22;19.40;99.90
19252;DHT22;9760;50.944;5.304;2023-05-07T15:05:48;19.40;99.90
19252;DHT22;9760;50.944;5.304;2023-05-07T15:08:17;19.30;99.90
19252;DHT22;9760;50.944;5.304;2023-05-07T15:10:42;19.50;99.90
19252;DHT22;9760;50.944;5.304;2023-05-07T15:13:09;19.50;99.90
19252;DHT22;9760;50.944;5.304;2023-05-07T15:15:35;19.40;99.90
19252;DHT22;9760;50.944;5.304;2023-05-07T15:18:02;19.30;99.90
19252;DHT22;9760;50.944;5.304;2023-05-07T15:20:27;19.30;99.90
19252;DHT22;9760;50.944;5.304;2023-05-07T15:22:53;19.20;99.90
19252;DHT22;9760;50.944;5.304;2023-05-07T15:25:19;19.40;99.90
19252;DHT22;9760;50.944;5.304;2023-05-07T15:27:45;19.50;99.90
19252;DHT22;9760;50.944;5.304;2023-05-07T15:30:11;19.50;99.90
19252;DHT22;9760;50.944;5.304;2023-05-07T15:32:37;19.40;99.90
19252;DHT22;9760;50.944;5.304;2023-05-07T15:35:04;19.50;99.90
19252;DHT22;9760;50.944;5.304;2023-05-07T15:37:31;19.70;99.90
19252;DHT22;9760;50.944;5.304;2023-05-07T15:39:56;19.70;99.90
19252;DHT22;9760;50.944;5.304;2023-05-07T15:42:22;19.70;99.90
19252;DHT22;9760;50.944;5.304;2023-05-07T15:44:48;19.70;99.90
19252;DHT22;9760;50.944;5.304;2023-05-07T15:47:14;19.60;99.90
19252;DHT22;9760;50.944;5.304;2023-05-07T15:49:42;19.50;99.90
19252;DHT22;9760;50.944;5.304;2023-05-07T15:52:08;19.70;99.90
19252;DHT22;9760;50.944;5.304;2023-05-07T15:54:36;19.90;99.90
19252;DHT22;9760;50.944;5.304;2023-05-07T15:57:03;19.90;99.90
19252;DHT22;9760;50.944;5.304;2023-05-07T15:59:29;19.90;99.90